Grimethorpe, United Kingdom
Current Conditions -  °F | °C
As of 12:50 PM on Saturday 20 Dec 2014 (Local Time) from EGCN Reporting Station
Broken Clouds Broken Clouds  
Wind Chill: 50°   Ceiling: 2600
Heat Index: 50°   Visibility: 6mi
Dew Point: 39°   Wind: 25mph
Humidity: 66%   Direction: 280°W
Pressure: 30.18"   Gusts: 37mph
Location:  53.58°N, 1.38°W
Report Text: EGCN 201250Z 28022G32KT 9999 BKN026 10/04 Q1022
Loading
Personal Weather Stations






























Interactive Weather Map New forecast layout! Learn more

10-Day Weather Forecast

Advertisements
Track Severe Weather on mobile